sensor_id;sensor_type;location;lat;lon;timestamp;P1;durP1;ratioP1;P2;durP2;ratioP2
77466;SDS011;66564;42.482;25.548;2024-03-25T00:01:09;8.18;;;4.70;;
77466;SDS011;66564;42.482;25.548;2024-03-25T00:03:34;7.65;;;5.35;;
77466;SDS011;66564;42.482;25.548;2024-03-25T00:06:00;8.40;;;4.95;;
77466;SDS011;66564;42.482;25.548;2024-03-25T00:08:25;5.82;;;4.22;;
77466;SDS011;66564;42.482;25.548;2024-03-25T00:10:51;7.97;;;5.13;;
77466;SDS011;66564;42.482;25.548;2024-03-25T00:13:17;7.63;;;5.05;;
77466;SDS011;66564;42.482;25.548;2024-03-25T00:15:42;9.65;;;4.80;;
77466;SDS011;66564;42.482;25.548;2024-03-25T00:18:09;7.53;;;4.80;;
77466;SDS011;66564;42.482;25.548;2024-03-25T00:20:36;7.22;;;4.78;;
77466;SDS011;66564;42.482;25.548;2024-03-25T00:23:01;7.63;;;4.97;;
77466;SDS011;66564;42.482;25.548;2024-03-25T00:25:27;8.57;;;5.07;;
77466;SDS011;66564;42.482;25.548;2024-03-25T00:27:52;8.25;;;5.70;;
77466;SDS011;66564;42.482;25.548;2024-03-25T00:30:18;7.00;;;4.63;;
77466;SDS011;66564;42.482;25.548;2024-03-25T00:32:44;8.15;;;4.88;;
77466;SDS011;66564;42.482;25.548;2024-03-25T00:35:10;9.98;;;5.40;;
77466;SDS011;66564;42.482;25.548;2024-03-25T00:37:35;6.95;;;4.63;;
77466;SDS011;66564;42.482;25.548;2024-03-25T00:40:01;8.60;;;5.28;;
77466;SDS011;66564;42.482;25.548;2024-03-25T00:42:27;11.73;;;5.00;;
77466;SDS011;66564;42.482;25.548;2024-03-25T00:44:53;8.82;;;5.57;;
77466;SDS011;66564;42.482;25.548;2024-03-25T00:47:18;8.70;;;5.03;;
77466;SDS011;66564;42.482;25.548;2024-03-25T00:49:44;8.88;;;5.20;;
77466;SDS011;66564;42.482;25.548;2024-03-25T00:52:09;9.60;;;5.10;;
77466;SDS011;66564;42.482;25.548;2024-03-25T00:54:34;8.30;;;4.80;;
77466;SDS011;66564;42.482;25.548;2024-03-25T00:57:00;7.32;;;4.47;;
77466;SDS011;66564;42.482;25.548;2024-03-25T00:59:25;8.80;;;5.10;;
77466;SDS011;66564;42.482;25.548;2024-03-25T01:01:51;9.32;;;5.22;;
77466;SDS011;66564;42.482;25.548;2024-03-25T01:04:16;6.57;;;4.55;;
77466;SDS011;66564;42.482;25.548;2024-03-25T01:06:42;8.65;;;4.80;;
77466;SDS011;66564;42.482;25.548;2024-03-25T01:09:08;7.85;;;5.25;;
77466;SDS011;66564;42.482;25.548;2024-03-25T01:11:35;8.60;;;5.43;;
77466;SDS011;66564;42.482;25.548;2024-03-25T01:14:00;8.93;;;5.40;;
77466;SDS011;66564;42.482;25.548;2024-03-25T01:16:26;9.90;;;5.30;;
77466;SDS011;66564;42.482;25.548;2024-03-25T01:18:52;8.30;;;5.05;;
77466;SDS011;66564;42.482;25.548;2024-03-25T01:21:17;7.95;;;5.35;;
77466;SDS011;66564;42.482;25.548;2024-03-25T01:23:43;7.68;;;4.65;;
77466;SDS011;66564;42.482;25.548;2024-03-25T01:26:08;8.25;;;4.45;;
77466;SDS011;66564;42.482;25.548;2024-03-25T01:28:34;7.22;;;4.90;;
77466;SDS011;66564;42.482;25.548;2024-03-25T01:30:59;6.95;;;4.07;;
77466;SDS011;66564;42.482;25.548;2024-03-25T01:33:25;11.77;;;5.55;;
77466;SDS011;66564;42.482;25.548;2024-03-25T01:35:51;7.22;;;5.20;;
77466;SDS011;66564;42.482;25.548;2024-03-25T01:38:16;7.82;;;4.90;;
77466;SDS011;66564;42.482;25.548;2024-03-25T01:40:42;6.68;;;5.32;;
77466;SDS011;66564;42.482;25.548;2024-03-25T01:43:07;15.00;;;5.28;;
77466;SDS011;66564;42.482;25.548;2024-03-25T01:45:33;8.48;;;5.30;;
77466;SDS011;66564;42.482;25.548;2024-03-25T01:48:06;8.23;;;5.10;;
77466;SDS011;66564;42.482;25.548;2024-03-25T01:50:33;6.32;;;4.65;;
77466;SDS011;66564;42.482;25.548;2024-03-25T01:53:01;7.78;;;4.70;;
77466;SDS011;66564;42.482;25.548;2024-03-25T01:55:28;7.38;;;4.90;;
77466;SDS011;66564;42.482;25.548;2024-03-25T01:57:55;6.75;;;4.13;;
77466;SDS011;66564;42.482;25.548;2024-03-25T02:00:21;8.30;;;4.93;;
77466;SDS011;66564;42.482;25.548;2024-03-25T02:02:49;6.25;;;4.38;;
77466;SDS011;66564;42.482;25.548;2024-03-25T02:05:15;7.32;;;5.00;;
77466;SDS011;66564;42.482;25.548;2024-03-25T02:07:42;7.05;;;4.38;;
77466;SDS011;66564;42.482;25.548;2024-03-25T02:10:08;6.18;;;4.32;;
77466;SDS011;66564;42.482;25.548;2024-03-25T02:12:35;7.78;;;4.00;;
77466;SDS011;66564;42.482;25.548;2024-03-25T02:15:01;5.95;;;4.20;;
77466;SDS011;66564;42.482;25.548;2024-03-25T02:17:27;5.85;;;4.20;;
77466;SDS011;66564;42.482;25.548;2024-03-25T02:19:52;5.82;;;4.20;;
77466;SDS011;66564;42.482;25.548;2024-03-25T02:22:18;6.53;;;4.13;;
77466;SDS011;66564;42.482;25.548;2024-03-25T02:24:47;5.93;;;3.88;;
77466;SDS011;66564;42.482;25.548;2024-03-25T02:27:15;6.72;;;3.67;;
77466;SDS011;66564;42.482;25.548;2024-03-25T02:29:42;6.07;;;3.75;;
77466;SDS011;66564;42.482;25.548;2024-03-25T02:32:07;7.95;;;3.80;;
77466;SDS011;66564;42.482;25.548;2024-03-25T02:34:39;7.88;;;3.92;;
77466;SDS011;66564;42.482;25.548;2024-03-25T02:37:16;8.15;;;4.18;;
77466;SDS011;66564;42.482;25.548;2024-03-25T02:39:42;6.38;;;4.20;;
77466;SDS011;66564;42.482;25.548;2024-03-25T02:42:08;6.20;;;3.72;;
77466;SDS011;66564;42.482;25.548;2024-03-25T02:44:33;10.07;;;4.00;;
77466;SDS011;66564;42.482;25.548;2024-03-25T02:46:59;5.90;;;3.88;;
77466;SDS011;66564;42.482;25.548;2024-03-25T02:49:25;7.93;;;4.43;;
77466;SDS011;66564;42.482;25.548;2024-03-25T02:51:50;5.90;;;3.70;;
77466;SDS011;66564;42.482;25.548;2024-03-25T02:54:16;7.22;;;3.78;;
77466;SDS011;66564;42.482;25.548;2024-03-25T02:56:42;9.13;;;4.28;;
77466;SDS011;66564;42.482;25.548;2024-03-25T03:02:12;17.17;;;4.05;;
77466;SDS011;66564;42.482;25.548;2024-03-25T03:04:38;3.63;;;2.42;;
77466;SDS011;66564;42.482;25.548;2024-03-25T03:07:03;2.05;;;1.45;;
77466;SDS011;66564;42.482;25.548;2024-03-25T03:09:29;1.67;;;1.20;;
77466;SDS011;66564;42.482;25.548;2024-03-25T03:11:55;2.58;;;1.00;;
77466;SDS011;66564;42.482;25.548;2024-03-25T03:14:20;1.10;;;0.73;;
77466;SDS011;66564;42.482;25.548;2024-03-25T03:16:46;1.70;;;0.85;;
77466;SDS011;66564;42.482;25.548;2024-03-25T03:19:11;0.73;;;0.60;;
77466;SDS011;66564;42.482;25.548;2024-03-25T03:21:37;3.70;;;0.55;;
77466;SDS011;66564;42.482;25.548;2024-03-25T03:24:03;2.10;;;0.63;;
77466;SDS011;66564;42.482;25.548;2024-03-25T03:26:29;1.15;;;0.55;;
77466;SDS011;66564;42.482;25.548;2024-03-25T03:28:55;1.63;;;0.50;;
77466;SDS011;66564;42.482;25.548;2024-03-25T03:31:20;1.77;;;0.40;;
77466;SDS011;66564;42.482;25.548;2024-03-25T03:33:46;0.73;;;0.47;;
77466;SDS011;66564;42.482;25.548;2024-03-25T03:36:16;1.70;;;0.30;;
77466;SDS011;66564;42.482;25.548;2024-03-25T03:38:42;5.95;;;0.90;;
77466;SDS011;66564;42.482;25.548;2024-03-25T03:41:08;0.40;;;0.38;;
77466;SDS011;66564;42.482;25.548;2024-03-25T03:43:33;18.33;;;1.60;;
77466;SDS011;66564;42.482;25.548;2024-03-25T03:45:59;8.25;;;1.60;;
77466;SDS011;66564;42.482;25.548;2024-03-25T03:48:24;1.85;;;1.10;;
77466;SDS011;66564;42.482;25.548;2024-03-25T03:50:49;0.88;;;0.60;;
77466;SDS011;66564;42.482;25.548;2024-03-25T03:53:15;0.65;;;0.47;;
77466;SDS011;66564;42.482;25.548;2024-03-25T03:55:41;2.65;;;1.15;;
77466;SDS011;66564;42.482;25.548;2024-03-25T03:58:06;1.75;;;0.68;;
77466;SDS011;66564;42.482;25.548;2024-03-25T04:00:35;1.85;;;0.75;;
77466;SDS011;66564;42.482;25.548;2024-03-25T04:03:01;0.40;;;0.40;;
77466;SDS011;66564;42.482;25.548;2024-03-25T04:05:30;0.75;;;0.52;;
77466;SDS011;66564;42.482;25.548;2024-03-25T04:07:56;0.82;;;0.80;;
77466;SDS011;66564;42.482;25.548;2024-03-25T04:10:22;1.35;;;1.23;;
77466;SDS011;66564;42.482;25.548;2024-03-25T04:12:48;0.70;;;0.65;;
77466;SDS011;66564;42.482;25.548;2024-03-25T04:15:13;12.02;;;1.55;;
77466;SDS011;66564;42.482;25.548;2024-03-25T04:17:43;1.90;;;0.93;;
77466;SDS011;66564;42.482;25.548;2024-03-25T04:20:10;1.38;;;0.90;;
77466;SDS011;66564;42.482;25.548;2024-03-25T04:22:36;0.75;;;0.75;;
77466;SDS011;66564;42.482;25.548;2024-03-25T04:25:02;1.02;;;0.70;;
77466;SDS011;66564;42.482;25.548;2024-03-25T04:27:27;2.78;;;0.98;;
77466;SDS011;66564;42.482;25.548;2024-03-25T04:29:53;1.25;;;0.55;;
77466;SDS011;66564;42.482;25.548;2024-03-25T04:32:18;4.40;;;0.70;;
77466;SDS011;66564;42.482;25.548;2024-03-25T04:34:44;0.52;;;0.40;;
77466;SDS011;66564;42.482;25.548;2024-03-25T04:37:09;0.35;;;0.30;;
77466;SDS011;66564;42.482;25.548;2024-03-25T04:39:35;1.48;;;0.30;;
77466;SDS011;66564;42.482;25.548;2024-03-25T04:42:00;0.20;;;0.20;;
77466;SDS011;66564;42.482;25.548;2024-03-25T04:44:27;1.98;;;0.57;;
77466;SDS011;66564;42.482;25.548;2024-03-25T04:46:52;0.10;;;0.10;;
77466;SDS011;66564;42.482;25.548;2024-03-25T04:49:18;2.28;;;0.20;;
77466;SDS011;66564;42.482;25.548;2024-03-25T04:51:43;0.43;;;0.22;;
77466;SDS011;66564;42.482;25.548;2024-03-25T04:54:09;0.17;;;0.17;;
77466;SDS011;66564;42.482;25.548;2024-03-25T04:56:34;0.43;;;0.32;;
77466;SDS011;66564;42.482;25.548;2024-03-25T04:59:00;0.05;;;0.00;;
77466;SDS011;66564;42.482;25.548;2024-03-25T05:01:26;0.50;;;0.08;;
77466;SDS011;66564;42.482;25.548;2024-03-25T05:03:57;0.60;;;0.32;;
77466;SDS011;66564;42.482;25.548;2024-03-25T05:06:22;2.65;;;0.60;;
77466;SDS011;66564;42.482;25.548;2024-03-25T05:08:47;10.30;;;1.15;;
77466;SDS011;66564;42.482;25.548;2024-03-25T05:11:13;12.75;;;1.15;;
77466;SDS011;66564;42.482;25.548;2024-03-25T05:13:38;3.28;;;0.50;;
77466;SDS011;66564;42.482;25.548;2024-03-25T05:16:04;0.77;;;0.47;;
77466;SDS011;66564;42.482;25.548;2024-03-25T05:18:29;0.50;;;0.30;;
77466;SDS011;66564;42.482;25.548;2024-03-25T05:20:55;2.30;;;0.57;;
77466;SDS011;66564;42.482;25.548;2024-03-25T05:23:20;0.30;;;0.30;;
77466;SDS011;66564;42.482;25.548;2024-03-25T05:25:46;0.85;;;0.30;;
77466;SDS011;66564;42.482;25.548;2024-03-25T05:28:11;0.93;;;0.55;;
77466;SDS011;66564;42.482;25.548;2024-03-25T05:30:38;0.63;;;0.43;;
77466;SDS011;66564;42.482;25.548;2024-03-25T05:33:04;0.95;;;0.50;;
77466;SDS011;66564;42.482;25.548;2024-03-25T05:35:29;0.43;;;0.22;;
77466;SDS011;66564;42.482;25.548;2024-03-25T05:37:58;0.95;;;0.50;;
77466;SDS011;66564;42.482;25.548;2024-03-25T05:40:23;0.50;;;0.47;;
77466;SDS011;66564;42.482;25.548;2024-03-25T05:42:49;1.00;;;0.60;;
77466;SDS011;66564;42.482;25.548;2024-03-25T05:45:14;0.93;;;0.50;;
77466;SDS011;66564;42.482;25.548;2024-03-25T05:47:41;0.57;;;0.35;;
77466;SDS011;66564;42.482;25.548;2024-03-25T05:50:06;2.35;;;0.60;;
77466;SDS011;66564;42.482;25.548;2024-03-25T05:52:33;0.75;;;0.52;;
77466;SDS011;66564;42.482;25.548;2024-03-25T05:54:58;1.30;;;0.85;;
77466;SDS011;66564;42.482;25.548;2024-03-25T05:57:24;1.65;;;1.40;;
77466;SDS011;66564;42.482;25.548;2024-03-25T05:59:49;1.65;;;1.10;;
77466;SDS011;66564;42.482;25.548;2024-03-25T06:02:15;1.55;;;1.13;;
77466;SDS011;66564;42.482;25.548;2024-03-25T06:04:40;3.00;;;1.45;;
77466;SDS011;66564;42.482;25.548;2024-03-25T06:07:06;2.72;;;1.50;;
77466;SDS011;66564;42.482;25.548;2024-03-25T06:09:31;2.60;;;1.77;;
77466;SDS011;66564;42.482;25.548;2024-03-25T06:11:57;19.80;;;3.00;;
77466;SDS011;66564;42.482;25.548;2024-03-25T06:14:22;8.45;;;1.85;;
77466;SDS011;66564;42.482;25.548;2024-03-25T06:16:48;4.85;;;2.17;;
77466;SDS011;66564;42.482;25.548;2024-03-25T06:19:13;4.65;;;2.28;;
77466;SDS011;66564;42.482;25.548;2024-03-25T06:21:38;2.85;;;1.90;;
77466;SDS011;66564;42.482;25.548;2024-03-25T06:24:16;6.55;;;2.30;;
77466;SDS011;66564;42.482;25.548;2024-03-25T06:26:41;3.38;;;2.20;;
77466;SDS011;66564;42.482;25.548;2024-03-25T06:29:07;4.28;;;2.30;;
77466;SDS011;66564;42.482;25.548;2024-03-25T06:31:32;6.32;;;2.53;;
77466;SDS011;66564;42.482;25.548;2024-03-25T06:34:16;5.85;;;2.95;;
77466;SDS011;66564;42.482;25.548;2024-03-25T06:36:47;4.47;;;2.78;;
77466;SDS011;66564;42.482;25.548;2024-03-25T06:39:13;4.30;;;3.08;;
77466;SDS011;66564;42.482;25.548;2024-03-25T06:41:39;6.15;;;2.72;;
77466;SDS011;66564;42.482;25.548;2024-03-25T06:44:05;4.65;;;3.10;;
77466;SDS011;66564;42.482;25.548;2024-03-25T06:46:31;4.63;;;2.90;;
77466;SDS011;66564;42.482;25.548;2024-03-25T06:48:56;7.40;;;3.20;;
77466;SDS011;66564;42.482;25.548;2024-03-25T06:51:22;4.40;;;3.00;;
77466;SDS011;66564;42.482;25.548;2024-03-25T06:53:47;4.53;;;3.15;;
77466;SDS011;66564;42.482;25.548;2024-03-25T06:56:13;4.85;;;3.25;;
77466;SDS011;66564;42.482;25.548;2024-03-25T06:58:39;5.85;;;2.67;;
77466;SDS011;66564;42.482;25.548;2024-03-25T07:01:05;6.55;;;3.35;;
77466;SDS011;66564;42.482;25.548;2024-03-25T07:03:32;4.80;;;3.10;;
77466;SDS011;66564;42.482;25.548;2024-03-25T07:05:58;5.07;;;3.30;;
77466;SDS011;66564;42.482;25.548;2024-03-25T07:08:25;4.18;;;2.92;;
77466;SDS011;66564;42.482;25.548;2024-03-25T07:10:51;5.65;;;3.67;;
77466;SDS011;66564;42.482;25.548;2024-03-25T07:13:17;4.55;;;3.22;;
77466;SDS011;66564;42.482;25.548;2024-03-25T07:15:43;4.18;;;3.22;;
77466;SDS011;66564;42.482;25.548;2024-03-25T07:18:09;8.27;;;4.10;;
77466;SDS011;66564;42.482;25.548;2024-03-25T07:20:41;8.57;;;4.10;;
77466;SDS011;66564;42.482;25.548;2024-03-25T07:23:07;6.03;;;3.78;;
77466;SDS011;66564;42.482;25.548;2024-03-25T07:25:33;8.05;;;4.55;;
77466;SDS011;66564;42.482;25.548;2024-03-25T07:27:59;7.40;;;3.92;;
77466;SDS011;66564;42.482;25.548;2024-03-25T07:30:25;7.15;;;4.65;;
77466;SDS011;66564;42.482;25.548;2024-03-25T07:32:53;7.75;;;4.47;;
77466;SDS011;66564;42.482;25.548;2024-03-25T07:35:19;7.63;;;4.38;;
77466;SDS011;66564;42.482;25.548;2024-03-25T07:37:44;6.47;;;4.30;;
77466;SDS011;66564;42.482;25.548;2024-03-25T07:40:10;7.55;;;4.28;;
77466;SDS011;66564;42.482;25.548;2024-03-25T07:42:36;8.75;;;4.90;;
77466;SDS011;66564;42.482;25.548;2024-03-25T07:45:02;8.20;;;4.38;;
77466;SDS011;66564;42.482;25.548;2024-03-25T07:47:30;8.73;;;4.15;;
77466;SDS011;66564;42.482;25.548;2024-03-25T07:49:55;7.50;;;4.22;;
77466;SDS011;66564;42.482;25.548;2024-03-25T07:52:21;10.57;;;3.85;;
77466;SDS011;66564;42.482;25.548;2024-03-25T07:54:46;5.78;;;3.85;;
77466;SDS011;66564;42.482;25.548;2024-03-25T07:57:12;17.05;;;4.28;;
77466;SDS011;66564;42.482;25.548;2024-03-25T07:59:37;8.88;;;4.15;;
77466;SDS011;66564;42.482;25.548;2024-03-25T08:02:03;5.65;;;3.45;;
77466;SDS011;66564;42.482;25.548;2024-03-25T08:04:29;4.30;;;2.97;;
77466;SDS011;66564;42.482;25.548;2024-03-25T08:06:54;5.18;;;2.70;;
77466;SDS011;66564;42.482;25.548;2024-03-25T08:09:20;4.85;;;2.38;;
77466;SDS011;66564;42.482;25.548;2024-03-25T08:11:45;3.20;;;1.98;;
77466;SDS011;66564;42.482;25.548;2024-03-25T08:14:11;3.17;;;2.15;;
77466;SDS011;66564;42.482;25.548;2024-03-25T08:16:37;2.38;;;1.70;;
77466;SDS011;66564;42.482;25.548;2024-03-25T08:19:03;2.33;;;1.70;;
77466;SDS011;66564;42.482;25.548;2024-03-25T08:21:29;2.53;;;1.70;;
77466;SDS011;66564;42.482;25.548;2024-03-25T08:23:55;2.53;;;1.48;;
77466;SDS011;66564;42.482;25.548;2024-03-25T08:26:20;2.03;;;1.45;;
77466;SDS011;66564;42.482;25.548;2024-03-25T08:28:46;2.55;;;1.90;;
77466;SDS011;66564;42.482;25.548;2024-03-25T08:31:13;2.60;;;1.73;;
77466;SDS011;66564;42.482;25.548;2024-03-25T08:33:39;2.60;;;1.80;;
77466;SDS011;66564;42.482;25.548;2024-03-25T08:36:04;2.72;;;1.90;;
77466;SDS011;66564;42.482;25.548;2024-03-25T08:38:30;3.00;;;1.90;;
77466;SDS011;66564;42.482;25.548;2024-03-25T08:40:55;4.68;;;2.05;;
77466;SDS011;66564;42.482;25.548;2024-03-25T08:43:21;2.47;;;1.70;;
77466;SDS011;66564;42.482;25.548;2024-03-25T08:45:46;3.20;;;2.00;;
77466;SDS011;66564;42.482;25.548;2024-03-25T08:48:12;3.38;;;2.10;;
77466;SDS011;66564;42.482;25.548;2024-03-25T08:50:37;5.65;;;2.20;;
77466;SDS011;66564;42.482;25.548;2024-03-25T08:53:03;4.15;;;2.15;;
77466;SDS011;66564;42.482;25.548;2024-03-25T08:55:29;4.38;;;2.22;;
77466;SDS011;66564;42.482;25.548;2024-03-25T08:57:55;4.05;;;2.60;;
77466;SDS011;66564;42.482;25.548;2024-03-25T09:00:23;3.80;;;2.55;;
77466;SDS011;66564;42.482;25.548;2024-03-25T09:02:54;4.78;;;2.67;;
77466;SDS011;66564;42.482;25.548;2024-03-25T09:05:20;7.60;;;3.10;;
77466;SDS011;66564;42.482;25.548;2024-03-25T09:07:46;5.97;;;3.45;;
77466;SDS011;66564;42.482;25.548;2024-03-25T09:10:16;4.80;;;3.42;;
77466;SDS011;66564;42.482;25.548;2024-03-25T09:13:00;5.47;;;3.83;;
77466;SDS011;66564;42.482;25.548;2024-03-25T09:15:25;5.50;;;4.05;;
77466;SDS011;66564;42.482;25.548;2024-03-25T09:17:51;6.25;;;4.03;;
77466;SDS011;66564;42.482;25.548;2024-03-25T09:20:16;6.07;;;4.25;;
77466;SDS011;66564;42.482;25.548;2024-03-25T09:22:42;5.82;;;3.90;;
77466;SDS011;66564;42.482;25.548;2024-03-25T09:25:09;6.60;;;4.25;;
77466;SDS011;66564;42.482;25.548;2024-03-25T09:27:35;5.40;;;4.00;;
77466;SDS011;66564;42.482;25.548;2024-03-25T09:30:00;5.20;;;3.92;;
77466;SDS011;66564;42.482;25.548;2024-03-25T09:32:26;6.30;;;4.03;;
77466;SDS011;66564;42.482;25.548;2024-03-25T09:34:54;9.80;;;4.53;;
77466;SDS011;66564;42.482;25.548;2024-03-25T09:37:19;6.50;;;4.30;;
77466;SDS011;66564;42.482;25.548;2024-03-25T09:39:45;5.82;;;4.30;;
77466;SDS011;66564;42.482;25.548;2024-03-25T09:42:12;6.05;;;4.10;;
77466;SDS011;66564;42.482;25.548;2024-03-25T09:44:40;11.27;;;4.22;;
77466;SDS011;66564;42.482;25.548;2024-03-25T09:47:06;4.60;;;3.40;;
77466;SDS011;66564;42.482;25.548;2024-03-25T09:49:32;5.40;;;3.67;;
77466;SDS011;66564;42.482;25.548;2024-03-25T09:52:00;5.53;;;3.35;;
77466;SDS011;66564;42.482;25.548;2024-03-25T09:54:25;7.05;;;3.35;;
77466;SDS011;66564;42.482;25.548;2024-03-25T09:56:51;4.35;;;3.65;;
77466;SDS011;66564;42.482;25.548;2024-03-25T09:59:20;5.18;;;2.97;;
77466;SDS011;66564;42.482;25.548;2024-03-25T10:01:45;3.70;;;2.97;;
77466;SDS011;66564;42.482;25.548;2024-03-25T10:04:11;4.38;;;2.70;;
77466;SDS011;66564;42.482;25.548;2024-03-25T10:06:36;5.57;;;3.58;;
77466;SDS011;66564;42.482;25.548;2024-03-25T10:09:05;4.97;;;2.72;;
77466;SDS011;66564;42.482;25.548;2024-03-25T10:11:34;5.47;;;3.38;;
77466;SDS011;66564;42.482;25.548;2024-03-25T10:14:00;5.28;;;3.25;;
77466;SDS011;66564;42.482;25.548;2024-03-25T10:16:26;3.90;;;2.85;;
77466;SDS011;66564;42.482;25.548;2024-03-25T10:18:53;4.60;;;2.70;;
77466;SDS011;66564;42.482;25.548;2024-03-25T10:21:21;3.33;;;2.80;;
77466;SDS011;66564;42.482;25.548;2024-03-25T10:23:48;6.13;;;3.38;;
77466;SDS011;66564;42.482;25.548;2024-03-25T10:26:26;6.82;;;2.78;;
77466;SDS011;66564;42.482;25.548;2024-03-25T10:31:29;3.85;;;2.60;;
77466;SDS011;66564;42.482;25.548;2024-03-25T10:33:55;2.92;;;2.28;;
77466;SDS011;66564;42.482;25.548;2024-03-25T10:36:21;4.25;;;2.97;;
77466;SDS011;66564;42.482;25.548;2024-03-25T10:38:48;4.60;;;2.53;;
77466;SDS011;66564;42.482;25.548;2024-03-25T10:41:16;3.47;;;2.50;;
77466;SDS011;66564;42.482;25.548;2024-03-25T10:43:47;3.58;;;2.65;;
77466;SDS011;66564;42.482;25.548;2024-03-25T10:46:17;4.15;;;2.88;;
77466;SDS011;66564;42.482;25.548;2024-03-25T10:48:47;5.20;;;2.40;;
77466;SDS011;66564;42.482;25.548;2024-03-25T10:51:17;14.45;;;3.40;;
77466;SDS011;66564;42.482;25.548;2024-03-25T10:53:45;7.72;;;3.00;;
77466;SDS011;66564;42.482;25.548;2024-03-25T10:56:12;6.85;;;2.65;;
77466;SDS011;66564;42.482;25.548;2024-03-25T10:58:39;15.20;;;4.00;;
77466;SDS011;66564;42.482;25.548;2024-03-25T11:01:05;15.80;;;3.35;;
77466;SDS011;66564;42.482;25.548;2024-03-25T11:03:32;5.30;;;3.00;;
77466;SDS011;66564;42.482;25.548;2024-03-25T11:05:58;6.47;;;3.08;;
77466;SDS011;66564;42.482;25.548;2024-03-25T11:08:30;4.25;;;2.67;;
77466;SDS011;66564;42.482;25.548;2024-03-25T11:10:56;5.10;;;3.42;;
77466;SDS011;66564;42.482;25.548;2024-03-25T11:13:22;4.38;;;3.22;;
77466;SDS011;66564;42.482;25.548;2024-03-25T11:15:48;5.47;;;3.08;;
77466;SDS011;66564;42.482;25.548;2024-03-25T11:18:15;4.53;;;3.30;;
77466;SDS011;66564;42.482;25.548;2024-03-25T11:20:43;7.80;;;3.80;;
77466;SDS011;66564;42.482;25.548;2024-03-25T11:23:09;6.05;;;3.15;;
77466;SDS011;66564;42.482;25.548;2024-03-25T11:25:36;4.82;;;3.35;;
77466;SDS011;66564;42.482;25.548;2024-03-25T11:28:02;4.65;;;2.72;;
77466;SDS011;66564;42.482;25.548;2024-03-25T11:30:29;5.03;;;3.15;;
77466;SDS011;66564;42.482;25.548;2024-03-25T11:32:56;4.70;;;3.28;;
77466;SDS011;66564;42.482;25.548;2024-03-25T11:35:22;4.20;;;2.88;;
77466;SDS011;66564;42.482;25.548;2024-03-25T11:37:48;5.15;;;3.08;;
77466;SDS011;66564;42.482;25.548;2024-03-25T11:40:15;12.07;;;3.17;;
77466;SDS011;66564;42.482;25.548;2024-03-25T11:42:42;8.50;;;3.05;;
77466;SDS011;66564;42.482;25.548;2024-03-25T11:45:15;21.55;;;3.63;;
77466;SDS011;66564;42.482;25.548;2024-03-25T11:47:43;8.73;;;3.13;;
77466;SDS011;66564;42.482;25.548;2024-03-25T11:50:11;3.88;;;2.95;;
77466;SDS011;66564;42.482;25.548;2024-03-25T11:52:41;3.17;;;2.38;;
77466;SDS011;66564;42.482;25.548;2024-03-25T11:55:10;2.70;;;2.00;;
77466;SDS011;66564;42.482;25.548;2024-03-25T11:57:40;2.45;;;1.75;;
77466;SDS011;66564;42.482;25.548;2024-03-25T12:00:07;2.45;;;1.80;;
77466;SDS011;66564;42.482;25.548;2024-03-25T12:02:38;2.30;;;1.70;;
77466;SDS011;66564;42.482;25.548;2024-03-25T12:05:05;2.70;;;1.73;;
77466;SDS011;66564;42.482;25.548;2024-03-25T12:07:32;2.78;;;1.90;;
77466;SDS011;66564;42.482;25.548;2024-03-25T12:09:58;1.92;;;1.70;;
77466;SDS011;66564;42.482;25.548;2024-03-25T12:12:42;2.72;;;2.00;;
77466;SDS011;66564;42.482;25.548;2024-03-25T12:15:08;2.90;;;2.20;;
77466;SDS011;66564;42.482;25.548;2024-03-25T12:17:34;3.10;;;2.20;;
77466;SDS011;66564;42.482;25.548;2024-03-25T12:22:30;3.65;;;2.53;;
77466;SDS011;66564;42.482;25.548;2024-03-25T12:24:59;4.40;;;2.70;;
77466;SDS011;66564;42.482;25.548;2024-03-25T12:27:25;12.40;;;3.10;;
77466;SDS011;66564;42.482;25.548;2024-03-25T12:29:57;4.18;;;2.72;;
77466;SDS011;66564;42.482;25.548;2024-03-25T12:35:13;4.65;;;2.90;;
77466;SDS011;66564;42.482;25.548;2024-03-25T12:37:43;4.90;;;3.30;;
77466;SDS011;66564;42.482;25.548;2024-03-25T12:40:11;4.25;;;3.17;;
77466;SDS011;66564;42.482;25.548;2024-03-25T12:42:38;4.18;;;3.05;;
77466;SDS011;66564;42.482;25.548;2024-03-25T12:45:07;3.78;;;2.78;;
77466;SDS011;66564;42.482;25.548;2024-03-25T12:47:33;3.53;;;2.22;;
77466;SDS011;66564;42.482;25.548;2024-03-25T12:49:59;3.63;;;2.08;;
77466;SDS011;66564;42.482;25.548;2024-03-25T12:52:25;18.50;;;3.15;;
77466;SDS011;66564;42.482;25.548;2024-03-25T12:54:50;2.95;;;2.10;;
77466;SDS011;66564;42.482;25.548;2024-03-25T12:57:16;2.35;;;1.80;;
77466;SDS011;66564;42.482;25.548;2024-03-25T12:59:41;2.67;;;2.10;;
77466;SDS011;66564;42.482;25.548;2024-03-25T13:02:09;2.55;;;1.80;;
77466;SDS011;66564;42.482;25.548;2024-03-25T13:04:36;4.18;;;2.08;;
77466;SDS011;66564;42.482;25.548;2024-03-25T13:07:06;4.05;;;2.17;;
77466;SDS011;66564;42.482;25.548;2024-03-25T13:09:32;4.47;;;2.60;;
77466;SDS011;66564;42.482;25.548;2024-03-25T13:11:57;4.15;;;2.00;;
77466;SDS011;66564;42.482;25.548;2024-03-25T13:14:24;2.50;;;1.95;;
77466;SDS011;66564;42.482;25.548;2024-03-25T13:16:49;2.70;;;2.08;;
77466;SDS011;66564;42.482;25.548;2024-03-25T13:19:15;3.10;;;2.20;;
77466;SDS011;66564;42.482;25.548;2024-03-25T13:21:40;3.28;;;2.22;;
77466;SDS011;66564;42.482;25.548;2024-03-25T13:24:07;4.47;;;2.10;;
77466;SDS011;66564;42.482;25.548;2024-03-25T13:26:33;2.83;;;2.10;;
77466;SDS011;66564;42.482;25.548;2024-03-25T13:28:58;2.95;;;2.20;;
77466;SDS011;66564;42.482;25.548;2024-03-25T13:31:24;3.38;;;2.30;;
77466;SDS011;66564;42.482;25.548;2024-03-25T13:33:50;2.92;;;2.10;;
77466;SDS011;66564;42.482;25.548;2024-03-25T13:36:17;3.55;;;2.10;;
77466;SDS011;66564;42.482;25.548;2024-03-25T13:38:43;2.67;;;2.00;;
77466;SDS011;66564;42.482;25.548;2024-03-25T13:41:08;2.65;;;1.83;;
77466;SDS011;66564;42.482;25.548;2024-03-25T13:43:34;3.08;;;2.38;;
77466;SDS011;66564;42.482;25.548;2024-03-25T13:46:01;3.78;;;1.92;;
77466;SDS011;66564;42.482;25.548;2024-03-25T13:48:27;4.35;;;2.55;;
77466;SDS011;66564;42.482;25.548;2024-03-25T13:50:53;4.88;;;2.47;;
77466;SDS011;66564;42.482;25.548;2024-03-25T13:53:19;4.97;;;2.53;;
77466;SDS011;66564;42.482;25.548;2024-03-25T13:55:45;4.00;;;2.75;;
77466;SDS011;66564;42.482;25.548;2024-03-25T13:58:11;3.08;;;2.20;;
77466;SDS011;66564;42.482;25.548;2024-03-25T14:00:36;4.13;;;2.47;;
77466;SDS011;66564;42.482;25.548;2024-03-25T14:03:02;5.20;;;2.53;;
77466;SDS011;66564;42.482;25.548;2024-03-25T14:05:30;3.88;;;2.53;;
77466;SDS011;66564;42.482;25.548;2024-03-25T14:07:56;3.47;;;2.30;;
77466;SDS011;66564;42.482;25.548;2024-03-25T14:10:21;5.75;;;2.80;;
77466;SDS011;66564;42.482;25.548;2024-03-25T14:12:47;5.72;;;2.60;;
77466;SDS011;66564;42.482;25.548;2024-03-25T14:15:13;3.53;;;2.33;;
77466;SDS011;66564;42.482;25.548;2024-03-25T14:17:38;2.95;;;2.33;;
77466;SDS011;66564;42.482;25.548;2024-03-25T14:20:04;3.38;;;2.30;;
77466;SDS011;66564;42.482;25.548;2024-03-25T14:22:31;6.53;;;2.83;;
77466;SDS011;66564;42.482;25.548;2024-03-25T14:24:57;6.05;;;2.60;;
77466;SDS011;66564;42.482;25.548;2024-03-25T14:27:23;14.95;;;2.47;;
77466;SDS011;66564;42.482;25.548;2024-03-25T14:29:50;3.65;;;2.28;;
77466;SDS011;66564;42.482;25.548;2024-03-25T14:32:15;6.47;;;2.20;;
77466;SDS011;66564;42.482;25.548;2024-03-25T14:34:44;15.70;;;4.05;;
77466;SDS011;66564;42.482;25.548;2024-03-25T14:37:10;9.73;;;2.85;;
77466;SDS011;66564;42.482;25.548;2024-03-25T14:39:35;4.63;;;2.45;;